createdAt,value
2017-01-08T00:00:48.249Z,0
2017-01-08T00:01:56.902Z,0
2017-01-08T00:03:05.561Z,0
2017-01-08T00:04:14.213Z,0
2017-01-08T00:05:22.890Z,0
2017-01-08T00:06:31.577Z,0
2017-01-08T00:07:40.240Z,0
2017-01-08T00:08:48.895Z,0
2017-01-08T00:09:57.549Z,0
2017-01-08T00:11:06.210Z,0
2017-01-08T00:12:14.871Z,0
2017-01-08T00:13:23.526Z,0
2017-01-08T00:14:32.182Z,0
2017-01-08T00:15:40.858Z,0
2017-01-08T00:16:49.515Z,0
2017-01-08T00:17:58.165Z,0
2017-01-08T00:19:06.815Z,0
2017-01-08T00:20:15.467Z,0
2017-01-08T00:21:24.125Z,0
2017-01-08T00:22:32.784Z,0
2017-01-08T00:23:41.441Z,0
2017-01-08T00:24:50.093Z,0
2017-01-08T00:25:58.782Z,0
2017-01-08T00:27:07.444Z,0
2017-01-08T00:28:16.095Z,0
2017-01-08T00:29:24.747Z,0
2017-01-08T00:30:33.403Z,0
2017-01-08T00:31:42.062Z,0
2017-01-08T00:32:50.728Z,0
2017-01-08T00:33:59.391Z,0
2017-01-08T00:35:08.048Z,0
2017-01-08T00:36:16.703Z,0
2017-01-08T00:37:25.360Z,0
2017-01-08T00:38:34.014Z,0
2017-01-08T00:39:42.672Z,0
2017-01-08T00:40:51.324Z,0
2017-01-08T00:41:59.978Z,0
2017-01-08T00:43:08.635Z,0
2017-01-08T00:44:17.298Z,0
2017-01-08T00:45:25.951Z,0
2017-01-08T00:46:34.610Z,0
2017-01-08T00:47:43.265Z,0
2017-01-08T00:48:51.919Z,0
2017-01-08T00:50:00.582Z,0
2017-01-08T00:51:09.240Z,0
2017-01-08T00:52:17.902Z,0
2017-01-08T00:53:26.581Z,0
2017-01-08T00:54:35.238Z,0
2017-01-08T00:55:43.893Z,0
2017-01-08T00:56:52.546Z,0
2017-01-08T00:58:01.204Z,0
2017-01-08T00:59:09.859Z,0
2017-01-08T01:00:18.516Z,0
2017-01-08T01:01:27.177Z,0
2017-01-08T01:02:35.829Z,0
2017-01-08T01:03:44.485Z,0
2017-01-08T01:04:53.133Z,0
2017-01-08T01:06:01.790Z,0
2017-01-08T01:07:10.436Z,0
2017-01-08T01:08:19.116Z,0
2017-01-08T01:09:27.775Z,0
2017-01-08T01:10:36.430Z,0
2017-01-08T01:11:45.082Z,0
2017-01-08T01:12:53.734Z,0
2017-01-08T01:14:02.395Z,0
2017-01-08T01:15:11.049Z,0
2017-01-08T01:16:19.705Z,0
2017-01-08T01:17:28.360Z,0
2017-01-08T01:18:37.008Z,0
2017-01-08T01:19:45.662Z,0
2017-01-08T01:20:54.313Z,0
2017-01-08T01:22:02.969Z,0
2017-01-08T01:23:11.625Z,0
2017-01-08T01:24:20.281Z,0
2017-01-08T01:25:28.937Z,0
2017-01-08T01:26:37.594Z,0
2017-01-08T01:27:46.254Z,0
2017-01-08T01:28:54.906Z,0
2017-01-08T01:30:03.557Z,0
2017-01-08T01:31:12.212Z,0
2017-01-08T01:32:20.862Z,0
2017-01-08T01:33:29.520Z,0
2017-01-08T01:34:38.177Z,0
2017-01-08T01:35:46.857Z,0
2017-01-08T01:36:55.505Z,0
2017-01-08T01:38:04.162Z,0
2017-01-08T01:39:12.816Z,0
2017-01-08T01:40:21.504Z,0
2017-01-08T01:41:30.165Z,0
2017-01-08T01:42:38.820Z,0
2017-01-08T01:43:47.493Z,0
2017-01-08T01:44:56.150Z,0
2017-01-08T01:46:04.807Z,0
2017-01-08T01:47:13.465Z,0
2017-01-08T01:48:22.115Z,0
2017-01-08T01:49:30.773Z,0
2017-01-08T01:50:39.429Z,0
2017-01-08T01:51:48.085Z,0
2017-01-08T01:52:56.740Z,0
2017-01-08T01:54:05.396Z,0
2017-01-08T01:55:14.047Z,0
2017-01-08T01:56:22.702Z,0
2017-01-08T01:57:31.362Z,0
2017-01-08T01:58:40.021Z,0
2017-01-08T01:59:48.673Z,0
2017-01-08T02:00:57.331Z,0
2017-01-08T02:02:05.980Z,0
2017-01-08T02:03:14.650Z,0
2017-01-08T02:04:23.299Z,0
2017-01-08T02:05:31.954Z,0
2017-01-08T02:06:40.603Z,0
2017-01-08T02:07:49.261Z,0
2017-01-08T02:08:57.913Z,0
2017-01-08T02:10:06.565Z,0
2017-01-08T02:11:15.221Z,0
2017-01-08T02:12:23.877Z,0
2017-01-08T02:13:32.531Z,0
2017-01-08T02:14:41.185Z,0
2017-01-08T02:15:49.840Z,0
2017-01-08T02:16:58.496Z,0
2017-01-08T02:18:07.158Z,0
2017-01-08T02:19:15.819Z,0
2017-01-08T02:20:24.496Z,0
2017-01-08T02:21:33.152Z,0
2017-01-08T02:22:41.807Z,0
2017-01-08T02:23:50.460Z,0
2017-01-08T02:24:59.120Z,0
2017-01-08T02:26:07.778Z,0
2017-01-08T02:27:16.432Z,0
2017-01-08T02:28:25.087Z,0
2017-01-08T02:29:33.741Z,0
2017-01-08T02:30:42.396Z,0
2017-01-08T02:31:51.054Z,0
2017-01-08T02:32:59.736Z,0
2017-01-08T02:34:08.394Z,0
2017-01-08T02:35:17.048Z,0
2017-01-08T02:36:25.700Z,0
2017-01-08T02:37:34.356Z,0
2017-01-08T02:38:43.010Z,0
2017-01-08T02:39:51.669Z,0
2017-01-08T02:41:00.318Z,0
2017-01-08T02:42:08.977Z,0
2017-01-08T02:43:17.631Z,0
2017-01-08T02:44:26.282Z,0
2017-01-08T02:45:34.939Z,0
2017-01-08T02:46:43.593Z,0
2017-01-08T02:47:52.248Z,0
2017-01-08T02:49:00.897Z,0
2017-01-08T02:50:09.558Z,0
2017-01-08T02:51:18.210Z,0
2017-01-08T02:52:26.863Z,0
2017-01-08T02:53:35.518Z,0
2017-01-08T02:54:44.175Z,0
2017-01-08T02:55:52.830Z,0
2017-01-08T02:57:01.487Z,0
2017-01-08T02:58:10.141Z,0
2017-01-08T02:59:18.797Z,0
2017-01-08T03:00:27.452Z,0
2017-01-08T03:01:36.105Z,0
2017-01-08T03:02:44.755Z,0
2017-01-08T03:03:53.410Z,0
2017-01-08T03:05:02.071Z,0
2017-01-08T03:06:10.725Z,0
2017-01-08T03:07:19.379Z,0
2017-01-08T03:08:28.032Z,0
2017-01-08T03:09:36.687Z,0
2017-01-08T03:10:45.339Z,0
2017-01-08T03:11:53.992Z,0
2017-01-08T03:13:02.639Z,0
2017-01-08T03:14:11.296Z,0
2017-01-08T03:15:19.957Z,0
2017-01-08T03:16:28.609Z,0
2017-01-08T03:17:37.264Z,0
2017-01-08T03:18:45.917Z,0
2017-01-08T03:19:54.572Z,0
2017-01-08T03:21:03.226Z,0
2017-01-08T03:22:11.876Z,0
2017-01-08T03:23:20.533Z,0
2017-01-08T03:24:29.191Z,0
2017-01-08T03:25:37.839Z,0
2017-01-08T03:26:46.493Z,0
2017-01-08T03:27:55.172Z,0
2017-01-08T03:29:03.823Z,0
2017-01-08T03:30:12.484Z,0
2017-01-08T03:31:21.140Z,0
2017-01-08T03:32:29.791Z,0
2017-01-08T03:33:38.455Z,0
2017-01-08T03:34:47.110Z,0
2017-01-08T03:35:55.767Z,0
2017-01-08T03:37:04.421Z,0
2017-01-08T03:38:13.076Z,0
2017-01-08T03:39:21.732Z,0
2017-01-08T03:40:30.381Z,0
2017-01-08T03:41:39.037Z,0
2017-01-08T03:42:47.693Z,0
2017-01-08T03:43:56.352Z,0
2017-01-08T03:45:05.009Z,0
2017-01-08T03:46:13.666Z,0
2017-01-08T03:47:22.326Z,0
2017-01-08T03:48:30.982Z,0
2017-01-08T03:49:39.643Z,0
2017-01-08T03:50:48.690Z,0
2017-01-08T03:51:57.346Z,0
2017-01-08T03:53:06.036Z,0
2017-01-08T03:54:14.695Z,0
2017-01-08T03:55:23.356Z,0
2017-01-08T03:56:32.015Z,0
2017-01-08T03:57:40.672Z,0
2017-01-08T03:58:49.332Z,0
2017-01-08T03:59:57.989Z,0
2017-01-08T04:01:06.645Z,0
2017-01-08T04:02:15.300Z,0
2017-01-08T04:03:23.953Z,0
2017-01-08T04:04:32.614Z,0
2017-01-08T04:05:41.270Z,0
2017-01-08T04:06:49.951Z,0
2017-01-08T04:07:58.610Z,0
2017-01-08T04:09:07.264Z,0
2017-01-08T04:10:15.924Z,0
2017-01-08T04:11:24.581Z,0
2017-01-08T04:12:33.234Z,0
2017-01-08T04:13:41.893Z,0
2017-01-08T04:14:50.557Z,0
2017-01-08T04:15:59.213Z,0
2017-01-08T04:17:07.875Z,0
2017-01-08T04:18:16.530Z,0
2017-01-08T04:19:25.188Z,0
2017-01-08T04:20:33.850Z,0
2017-01-08T04:21:42.505Z,0
2017-01-08T04:22:51.158Z,0
2017-01-08T04:23:59.816Z,0
2017-01-08T04:25:08.471Z,0
2017-01-08T04:26:17.127Z,0
2017-01-08T04:27:25.781Z,0
2017-01-08T04:28:34.435Z,0
2017-01-08T04:29:43.099Z,0
2017-01-08T04:30:51.755Z,0
2017-01-08T04:32:00.411Z,0
2017-01-08T04:33:09.061Z,0
2017-01-08T04:34:17.711Z,0
2017-01-08T04:35:26.367Z,0
2017-01-08T04:36:35.021Z,0
2017-01-08T04:37:43.700Z,0
2017-01-08T04:38:52.359Z,0
2017-01-08T04:40:01.011Z,0
2017-01-08T04:41:09.670Z,0
2017-01-08T04:42:18.321Z,0
2017-01-08T04:43:26.975Z,0
2017-01-08T04:44:35.630Z,0
2017-01-08T04:45:44.282Z,0
2017-01-08T04:46:52.936Z,0
2017-01-08T04:48:01.594Z,0
2017-01-08T04:49:10.248Z,0
2017-01-08T04:50:18.901Z,0
2017-01-08T04:51:27.563Z,0
2017-01-08T04:52:36.219Z,0
2017-01-08T04:53:44.878Z,0
2017-01-08T04:54:53.535Z,0
2017-01-08T04:56:02.191Z,0
2017-01-08T04:57:10.842Z,0
2017-01-08T04:58:19.500Z,0
2017-01-08T04:59:28.154Z,0
2017-01-08T05:00:36.811Z,0
2017-01-08T05:01:45.467Z,0
2017-01-08T05:02:54.127Z,0
2017-01-08T05:04:02.778Z,0
2017-01-08T05:05:11.820Z,0
2017-01-08T05:06:20.476Z,0
2017-01-08T05:07:29.139Z,0
2017-01-08T05:08:37.798Z,0
2017-01-08T05:09:46.446Z,0
2017-01-08T05:10:55.096Z,0
2017-01-08T05:12:03.750Z,0
2017-01-08T05:13:12.414Z,0
2017-01-08T05:14:21.080Z,0
2017-01-08T05:15:29.734Z,0
2017-01-08T05:16:38.423Z,0
2017-01-08T05:17:47.081Z,0
2017-01-08T05:18:55.738Z,0
2017-01-08T05:20:04.391Z,0
2017-01-08T05:21:13.054Z,0
2017-01-08T05:22:21.706Z,0
2017-01-08T05:23:30.364Z,0
2017-01-08T05:24:39.027Z,0
2017-01-08T05:25:47.680Z,0
2017-01-08T05:26:56.332Z,0
2017-01-08T05:28:04.993Z,0
2017-01-08T05:29:13.654Z,0
2017-01-08T05:30:22.310Z,0
2017-01-08T05:31:30.965Z,0
2017-01-08T05:32:39.622Z,0
2017-01-08T05:33:48.275Z,0
2017-01-08T05:34:56.925Z,0
2017-01-08T05:36:05.584Z,0
2017-01-08T05:37:14.237Z,0
2017-01-08T05:38:22.888Z,0
2017-01-08T05:39:31.545Z,0
2017-01-08T05:40:40.234Z,0
2017-01-08T05:41:48.895Z,0
2017-01-08T05:42:57.547Z,0
2017-01-08T05:44:06.210Z,0
2017-01-08T05:45:14.862Z,0
2017-01-08T05:46:23.519Z,0
2017-01-08T05:47:32.197Z,0
2017-01-08T05:48:40.852Z,0
2017-01-08T05:49:49.510Z,0
2017-01-08T05:50:58.168Z,0
2017-01-08T05:52:06.824Z,0
2017-01-08T05:53:15.500Z,0
2017-01-08T05:54:24.152Z,0
2017-01-08T05:55:32.810Z,0
2017-01-08T05:56:41.474Z,0
2017-01-08T05:57:50.156Z,0
2017-01-08T05:58:58.820Z,0
2017-01-08T06:00:07.484Z,0
2017-01-08T06:01:16.171Z,0
2017-01-08T06:02:24.832Z,0
2017-01-08T06:03:33.486Z,0
2017-01-08T06:04:42.152Z,0
2017-01-08T06:05:50.831Z,0
2017-01-08T06:06:59.495Z,0
2017-01-08T06:08:08.154Z,0
2017-01-08T06:09:16.816Z,0
2017-01-08T06:10:25.473Z,0
2017-01-08T06:11:34.514Z,0
2017-01-08T06:12:43.177Z,0
2017-01-08T06:13:51.833Z,0
2017-01-08T06:15:00.496Z,0
2017-01-08T06:16:09.166Z,0
2017-01-08T06:17:17.819Z,0
2017-01-08T06:18:26.486Z,0
2017-01-08T06:19:35.143Z,0
2017-01-08T06:20:43.798Z,0
2017-01-08T06:21:52.451Z,0
2017-01-08T06:23:01.118Z,0
2017-01-08T06:24:09.772Z,0
2017-01-08T06:25:18.431Z,0
2017-01-08T06:26:27.083Z,0
2017-01-08T06:27:35.732Z,0
2017-01-08T06:28:44.387Z,0
2017-01-08T06:29:53.044Z,0
2017-01-08T06:31:01.699Z,0
2017-01-08T06:32:10.366Z,0
2017-01-08T06:33:19.019Z,0
2017-01-08T06:34:27.676Z,0
2017-01-08T06:35:36.337Z,0
2017-01-08T06:36:44.992Z,0
2017-01-08T06:37:53.650Z,0
2017-01-08T06:39:02.306Z,0
2017-01-08T06:40:10.967Z,0
2017-01-08T06:41:19.621Z,0
2017-01-08T06:42:28.275Z,0
2017-01-08T06:43:36.930Z,0
2017-01-08T06:44:45.589Z,0
2017-01-08T06:45:54.244Z,0
2017-01-08T06:47:02.904Z,0
2017-01-08T06:48:11.561Z,0
2017-01-08T06:49:20.221Z,0
2017-01-08T06:50:28.879Z,0
2017-01-08T06:51:37.530Z,0
2017-01-08T06:52:46.191Z,0
2017-01-08T06:53:54.849Z,0
2017-01-08T06:55:03.510Z,0
2017-01-08T06:56:12.157Z,0
2017-01-08T06:57:20.810Z,0
2017-01-08T06:58:29.466Z,0
2017-01-08T06:59:38.119Z,0
2017-01-08T07:00:46.765Z,0
2017-01-08T07:01:55.419Z,0
2017-01-08T07:03:04.101Z,0
2017-01-08T07:04:12.803Z,0
2017-01-08T07:05:21.482Z,0
2017-01-08T07:06:30.136Z,0
2017-01-08T07:07:38.790Z,0
2017-01-08T07:08:47.456Z,0
2017-01-08T07:09:56.108Z,0
2017-01-08T07:11:04.761Z,0
2017-01-08T07:12:13.413Z,0
2017-01-08T07:13:22.067Z,0
2017-01-08T07:14:30.722Z,0
2017-01-08T07:15:39.380Z,0
2017-01-08T07:16:48.046Z,0
2017-01-08T07:17:56.703Z,0
2017-01-08T07:19:05.362Z,0
2017-01-08T07:20:14.016Z,0
2017-01-08T07:21:22.671Z,0
2017-01-08T07:22:31.328Z,0
2017-01-08T07:23:39.985Z,0
2017-01-08T07:24:48.643Z,0
2017-01-08T07:25:57.299Z,0
2017-01-08T07:27:05.958Z,0
2017-01-08T07:28:14.614Z,5
2017-01-08T07:29:23.272Z,5
2017-01-08T07:30:31.925Z,5
2017-01-08T07:31:40.586Z,5
2017-01-08T07:32:49.240Z,5
2017-01-08T07:33:57.899Z,5
2017-01-08T07:35:06.556Z,5
2017-01-08T07:36:15.214Z,5
2017-01-08T07:37:24.256Z,5
2017-01-08T07:38:32.912Z,10
2017-01-08T07:39:41.564Z,10
2017-01-08T07:40:50.230Z,10
2017-01-08T07:41:58.892Z,10
2017-01-08T07:43:07.558Z,10
2017-01-08T07:44:16.598Z,10
2017-01-08T07:45:25.249Z,10
2017-01-08T07:46:33.901Z,10
2017-01-08T07:47:42.559Z,15
2017-01-08T07:48:51.217Z,15
2017-01-08T07:49:59.869Z,15
2017-01-08T07:51:08.531Z,15
2017-01-08T07:52:17.180Z,15
2017-01-08T07:53:25.835Z,20
2017-01-08T07:54:34.495Z,20
2017-01-08T07:55:43.153Z,20
2017-01-08T07:56:51.813Z,20
2017-01-08T07:58:00.464Z,20
2017-01-08T07:59:09.123Z,20
2017-01-08T08:00:17.783Z,20
2017-01-08T08:01:26.437Z,20
2017-01-08T08:02:35.099Z,20
2017-01-08T08:03:43.758Z,25
2017-01-08T08:04:52.422Z,25
2017-01-08T08:06:01.079Z,30
2017-01-08T08:07:09.739Z,30
2017-01-08T08:08:18.395Z,30
2017-01-08T08:09:27.056Z,35
2017-01-08T08:10:35.711Z,35
2017-01-08T08:11:44.372Z,40
2017-01-08T08:12:53.029Z,40
2017-01-08T08:14:01.686Z,40
2017-01-08T08:15:10.343Z,45
2017-01-08T08:16:18.998Z,45
2017-01-08T08:17:27.653Z,50
2017-01-08T08:18:36.311Z,55
2017-01-08T08:19:44.974Z,55
2017-01-08T08:20:53.633Z,60
2017-01-08T08:22:02.295Z,65
2017-01-08T08:23:10.954Z,65
2017-01-08T08:24:19.625Z,70
2017-01-08T08:25:28.285Z,70
2017-01-08T08:26:36.970Z,75
2017-01-08T08:27:45.623Z,75
2017-01-08T08:28:54.281Z,80
2017-01-08T08:30:02.933Z,85
2017-01-08T08:31:11.590Z,85
2017-01-08T08:32:20.248Z,85
2017-01-08T08:33:28.902Z,90
2017-01-08T08:34:37.557Z,90
2017-01-08T08:35:46.217Z,100
2017-01-08T08:36:54.872Z,100
2017-01-08T08:38:03.524Z,105
2017-01-08T08:39:12.179Z,110
2017-01-08T08:40:20.833Z,110
2017-01-08T08:41:29.518Z,110
2017-01-08T08:42:38.173Z,105
2017-01-08T08:43:46.844Z,105
2017-01-08T08:44:55.502Z,115
2017-01-08T08:46:04.165Z,120
2017-01-08T08:47:12.821Z,120
2017-01-08T08:48:21.478Z,125
2017-01-08T08:49:30.135Z,130
2017-01-08T08:50:38.795Z,135
2017-01-08T08:51:47.449Z,135
2017-01-08T08:52:56.484Z,135
2017-01-08T08:54:05.147Z,140
2017-01-08T08:55:13.805Z,140
2017-01-08T08:56:22.484Z,140
2017-01-08T08:57:31.136Z,140
2017-01-08T08:58:39.793Z,145
2017-01-08T08:59:48.447Z,140
2017-01-08T09:00:57.108Z,145
2017-01-08T09:02:05.772Z,145
2017-01-08T09:03:14.427Z,145
2017-01-08T09:04:23.091Z,150
2017-01-08T09:05:31.771Z,150
2017-01-08T09:06:40.435Z,150
2017-01-08T09:07:49.093Z,150
2017-01-08T09:08:57.754Z,155
2017-01-08T09:10:06.441Z,160
2017-01-08T09:11:15.102Z,165
2017-01-08T09:12:23.760Z,165
2017-01-08T09:13:32.422Z,170
2017-01-08T09:14:41.077Z,170
2017-01-08T09:15:49.736Z,170
2017-01-08T09:16:58.397Z,175
2017-01-08T09:18:07.060Z,180
2017-01-08T09:19:15.720Z,180
2017-01-08T09:20:24.397Z,175
2017-01-08T09:21:33.052Z,180
2017-01-08T09:22:41.728Z,180
2017-01-08T09:23:50.387Z,185
2017-01-08T09:24:59.051Z,185
2017-01-08T09:26:07.714Z,190
2017-01-08T09:27:16.378Z,190
2017-01-08T09:28:25.039Z,190
2017-01-08T09:29:33.723Z,190
2017-01-08T09:30:42.389Z,195
2017-01-08T09:31:51.050Z,205
2017-01-08T09:32:59.714Z,220
2017-01-08T09:34:08.378Z,230
2017-01-08T09:35:17.039Z,225
2017-01-08T09:36:25.696Z,215
2017-01-08T09:37:34.357Z,210
2017-01-08T09:38:43.009Z,200
2017-01-08T09:39:51.666Z,195
2017-01-08T09:41:00.331Z,195
2017-01-08T09:42:08.990Z,195
2017-01-08T09:43:17.647Z,200
2017-01-08T09:44:26.454Z,195
2017-01-08T09:45:35.111Z,195
2017-01-08T09:46:43.768Z,195
2017-01-08T09:47:52.433Z,195
2017-01-08T09:49:01.113Z,205
2017-01-08T09:50:09.778Z,210
2017-01-08T09:51:18.452Z,210
2017-01-08T09:52:27.118Z,215
2017-01-08T09:53:35.780Z,220
2017-01-08T09:54:44.440Z,230
2017-01-08T09:55:53.105Z,225
2017-01-08T09:57:01.769Z,225
2017-01-08T09:58:10.432Z,220
2017-01-08T09:59:19.086Z,220
2017-01-08T10:00:27.761Z,215
2017-01-08T10:01:36.425Z,210
2017-01-08T10:02:45.083Z,210
2017-01-08T10:03:53.747Z,215
2017-01-08T10:05:02.402Z,225
2017-01-08T10:06:11.061Z,245
2017-01-08T10:07:19.717Z,260
2017-01-08T10:08:28.373Z,280
2017-01-08T10:09:37.040Z,290
2017-01-08T10:10:45.699Z,275
2017-01-08T10:11:54.361Z,250
2017-01-08T10:13:03.027Z,225
2017-01-08T10:14:11.686Z,210
2017-01-08T10:15:20.339Z,210
2017-01-08T10:16:29.000Z,210
2017-01-08T10:17:37.667Z,205
2017-01-08T10:18:46.324Z,205
2017-01-08T10:19:54.984Z,205
2017-01-08T10:21:03.649Z,200
2017-01-08T10:22:12.309Z,195
2017-01-08T10:23:20.974Z,190
2017-01-08T10:24:29.631Z,200
2017-01-08T10:25:38.291Z,210
2017-01-08T10:26:46.957Z,225
2017-01-08T10:27:55.611Z,225
2017-01-08T10:29:04.273Z,230
2017-01-08T10:30:12.935Z,240
2017-01-08T10:31:21.593Z,245
2017-01-08T10:32:30.252Z,250
2017-01-08T10:33:38.912Z,260
2017-01-08T10:34:47.572Z,265
2017-01-08T10:35:56.245Z,275
2017-01-08T10:37:04.905Z,270
2017-01-08T10:38:13.576Z,270
2017-01-08T10:39:22.259Z,260
2017-01-08T10:40:30.918Z,260
2017-01-08T10:41:39.580Z,260
2017-01-08T10:42:48.238Z,270
2017-01-08T10:43:56.899Z,280
2017-01-08T10:45:05.552Z,280
2017-01-08T10:46:14.213Z,280
2017-01-08T10:47:22.871Z,285
2017-01-08T10:48:31.533Z,280
2017-01-08T10:49:40.196Z,270
2017-01-08T10:50:48.860Z,270
2017-01-08T10:51:57.531Z,265
2017-01-08T10:53:06.187Z,255
2017-01-08T10:54:14.848Z,245
2017-01-08T10:55:23.517Z,245
2017-01-08T10:56:32.179Z,245
2017-01-08T10:57:40.836Z,245
2017-01-08T10:58:49.497Z,245
2017-01-08T10:59:58.159Z,250
2017-01-08T11:01:06.818Z,255
2017-01-08T11:02:15.475Z,260
2017-01-08T11:03:24.140Z,255
2017-01-08T11:04:32.799Z,255
2017-01-08T11:05:41.459Z,250
2017-01-08T11:06:50.121Z,255
2017-01-08T11:07:58.782Z,260
2017-01-08T11:09:07.444Z,265
2017-01-08T11:10:16.235Z,265
2017-01-08T11:11:24.896Z,270
2017-01-08T11:12:33.560Z,280
2017-01-08T11:13:42.226Z,290
2017-01-08T11:14:50.889Z,295
2017-01-08T11:15:59.562Z,300
2017-01-08T11:17:08.549Z,305
2017-01-08T11:18:17.286Z,320
2017-01-08T11:19:25.949Z,325
2017-01-08T11:20:34.610Z,335
2017-01-08T11:21:43.275Z,340
2017-01-08T11:22:51.934Z,350
2017-01-08T11:24:00.595Z,355
2017-01-08T11:25:09.258Z,345
2017-01-08T11:26:18.329Z,330
2017-01-08T11:27:26.991Z,310
2017-01-08T11:28:35.647Z,305
2017-01-08T11:29:44.307Z,295
2017-01-08T11:30:52.967Z,285
2017-01-08T11:32:01.628Z,285
2017-01-08T11:33:10.293Z,295
2017-01-08T11:34:18.951Z,310
2017-01-08T11:35:27.617Z,320
2017-01-08T11:36:36.275Z,330
2017-01-08T11:37:44.930Z,330
2017-01-08T11:38:53.593Z,330
2017-01-08T11:40:02.257Z,340
2017-01-08T11:41:10.917Z,350
2017-01-08T11:42:19.577Z,350
2017-01-08T11:43:28.241Z,355
2017-01-08T11:44:36.905Z,365
2017-01-08T11:45:45.567Z,365
2017-01-08T11:46:54.232Z,355
2017-01-08T11:48:02.897Z,350
2017-01-08T11:49:11.562Z,360
2017-01-08T11:50:20.249Z,365
2017-01-08T11:51:28.913Z,375
2017-01-08T11:52:37.956Z,375
2017-01-08T11:53:46.673Z,370
2017-01-08T11:54:55.339Z,375
2017-01-08T11:56:04.004Z,380
2017-01-08T11:57:12.708Z,360
2017-01-08T11:58:21.373Z,345
2017-01-08T11:59:30.040Z,345
2017-01-08T12:00:38.706Z,345
2017-01-08T12:01:47.369Z,340
2017-01-08T12:02:56.021Z,335
2017-01-08T12:04:04.681Z,320
2017-01-08T12:05:13.343Z,315
2017-01-08T12:06:22.001Z,315
2017-01-08T12:07:30.757Z,320
2017-01-08T12:08:39.415Z,325
2017-01-08T12:09:48.075Z,325
2017-01-08T12:10:56.732Z,315
2017-01-08T12:12:05.389Z,305
2017-01-08T12:13:14.051Z,300
2017-01-08T12:14:22.708Z,295
2017-01-08T12:15:31.387Z,290
2017-01-08T12:16:40.046Z,285
2017-01-08T12:17:48.708Z,285
2017-01-08T12:18:57.364Z,295
2017-01-08T12:20:06.027Z,295
2017-01-08T12:21:14.685Z,295
2017-01-08T12:22:23.346Z,285
2017-01-08T12:23:32.196Z,280
2017-01-08T12:24:40.865Z,280
2017-01-08T12:25:50.177Z,285
2017-01-08T12:26:58.836Z,280
2017-01-08T12:28:07.498Z,275
2017-01-08T12:29:16.193Z,280
2017-01-08T12:30:24.861Z,275
2017-01-08T12:31:33.530Z,275
2017-01-08T12:32:42.195Z,270
2017-01-08T12:33:50.932Z,260
2017-01-08T12:34:59.600Z,255
2017-01-08T12:36:08.309Z,250
2017-01-08T12:37:16.964Z,250
2017-01-08T12:38:25.757Z,255
2017-01-08T12:39:34.695Z,250
2017-01-08T12:40:43.458Z,255
2017-01-08T12:41:52.117Z,275
2017-01-08T12:43:01.024Z,280
2017-01-08T12:44:09.701Z,280
2017-01-08T12:45:18.577Z,275
2017-01-08T12:46:27.271Z,270
2017-01-08T12:47:35.945Z,270
2017-01-08T12:48:44.606Z,265
2017-01-08T12:49:53.268Z,265
2017-01-08T12:51:01.933Z,265
2017-01-08T12:52:10.633Z,265
2017-01-08T12:53:19.308Z,260
2017-01-08T12:54:28.146Z,250
2017-01-08T12:55:36.815Z,235
2017-01-08T12:56:45.512Z,225
2017-01-08T12:57:54.167Z,225
2017-01-08T12:59:02.969Z,225
2017-01-08T13:00:11.831Z,220
2017-01-08T13:01:20.684Z,215
2017-01-08T13:02:29.496Z,215
2017-01-08T13:03:39.733Z,215
2017-01-08T13:04:48.417Z,210
2017-01-08T13:05:57.631Z,205
2017-01-08T13:07:06.291Z,205
2017-01-08T13:08:15.048Z,205
2017-01-08T13:09:23.714Z,205
2017-01-08T13:10:32.395Z,205
2017-01-08T13:11:41.056Z,200
2017-01-08T13:12:49.722Z,200
2017-01-08T13:13:58.384Z,200
2017-01-08T13:15:07.052Z,200
2017-01-08T13:16:15.733Z,195
2017-01-08T13:17:24.395Z,190
2017-01-08T13:18:33.098Z,185
2017-01-08T13:19:41.775Z,180
2017-01-08T13:20:50.437Z,180
2017-01-08T13:21:59.105Z,170
2017-01-08T13:23:07.769Z,185
2017-01-08T13:24:16.433Z,185
2017-01-08T13:25:25.149Z,185
2017-01-08T13:26:33.815Z,180
2017-01-08T13:27:42.484Z,180
2017-01-08T13:28:51.151Z,180
2017-01-08T13:29:59.816Z,180
2017-01-08T13:31:08.473Z,180
2017-01-08T13:32:17.177Z,175
2017-01-08T13:33:25.832Z,180
2017-01-08T13:34:34.515Z,170
2017-01-08T13:35:43.175Z,175
2017-01-08T13:36:51.866Z,180
2017-01-08T13:38:00.530Z,180
2017-01-08T13:39:09.195Z,185
2017-01-08T13:40:17.863Z,185
2017-01-08T13:41:26.528Z,185
2017-01-08T13:42:35.203Z,180
2017-01-08T13:43:43.860Z,175
2017-01-08T13:44:52.522Z,180
2017-01-08T13:46:01.190Z,175
2017-01-08T13:47:09.858Z,170
2017-01-08T13:48:18.520Z,175
2017-01-08T13:49:27.176Z,170
2017-01-08T13:50:36.225Z,170
2017-01-08T13:51:44.891Z,165
2017-01-08T13:52:53.554Z,165
2017-01-08T13:54:02.304Z,160
2017-01-08T13:55:10.981Z,160
2017-01-08T13:56:19.650Z,160
2017-01-08T13:57:28.313Z,155
2017-01-08T13:58:36.985Z,145
2017-01-08T13:59:45.650Z,140
2017-01-08T14:00:54.303Z,140
2017-01-08T14:02:02.968Z,135
2017-01-08T14:03:11.673Z,135
2017-01-08T14:04:20.331Z,135
2017-01-08T14:05:29.035Z,135
2017-01-08T14:06:37.697Z,135
2017-01-08T14:07:46.357Z,135
2017-01-08T14:08:55.077Z,135
2017-01-08T14:10:03.741Z,135
2017-01-08T14:11:12.429Z,135
2017-01-08T14:12:21.085Z,130
2017-01-08T14:13:29.798Z,125
2017-01-08T14:14:38.518Z,125
2017-01-08T14:15:47.171Z,125
2017-01-08T14:16:55.838Z,125
2017-01-08T14:18:04.498Z,120
2017-01-08T14:19:13.173Z,115
2017-01-08T14:20:21.835Z,110
2017-01-08T14:21:30.531Z,105
2017-01-08T14:22:39.188Z,100
2017-01-08T14:23:47.921Z,100
2017-01-08T14:24:56.757Z,100
2017-01-08T14:26:05.419Z,100
2017-01-08T14:27:14.367Z,95
2017-01-08T14:28:23.060Z,95
2017-01-08T14:29:31.725Z,95
2017-01-08T14:30:40.388Z,95
2017-01-08T14:31:49.045Z,95
2017-01-08T14:32:57.703Z,95
2017-01-08T14:34:06.374Z,95
2017-01-08T14:35:15.269Z,90
2017-01-08T14:36:24.033Z,90
2017-01-08T14:37:32.698Z,85
2017-01-08T14:38:41.362Z,85
2017-01-08T14:39:50.028Z,85
2017-01-08T14:40:58.690Z,85
2017-01-08T14:42:07.373Z,80
2017-01-08T14:43:16.041Z,80
2017-01-08T14:44:24.703Z,80
2017-01-08T14:45:33.365Z,75
2017-01-08T14:46:42.031Z,75
2017-01-08T14:47:50.721Z,75
2017-01-08T14:48:59.763Z,70
2017-01-08T14:50:08.430Z,70
2017-01-08T14:51:17.092Z,70
2017-01-08T14:52:25.751Z,65
2017-01-08T14:53:34.424Z,65
2017-01-08T14:54:43.114Z,65
2017-01-08T14:55:51.800Z,60
2017-01-08T14:57:00.618Z,60
2017-01-08T14:58:09.284Z,60
2017-01-08T14:59:17.942Z,55
2017-01-08T15:00:26.602Z,55
2017-01-08T15:01:35.538Z,55
2017-01-08T15:02:44.204Z,50
2017-01-08T15:03:52.898Z,50
2017-01-08T15:05:01.555Z,50
2017-01-08T15:06:10.213Z,45
2017-01-08T15:07:18.880Z,45
2017-01-08T15:08:27.543Z,45
2017-01-08T15:09:36.206Z,45
2017-01-08T15:10:44.873Z,45
2017-01-08T15:11:53.537Z,40
2017-01-08T15:13:02.261Z,40
2017-01-08T15:14:11.303Z,40
2017-01-08T15:15:19.968Z,35
2017-01-08T15:16:28.625Z,35
2017-01-08T15:17:37.278Z,35
2017-01-08T15:18:45.953Z,35
2017-01-08T15:19:54.605Z,35
2017-01-08T15:21:03.267Z,30
2017-01-08T15:22:11.924Z,30
2017-01-08T15:23:20.585Z,30
2017-01-08T15:24:29.251Z,30
2017-01-08T15:25:37.907Z,25
2017-01-08T15:26:46.565Z,25
2017-01-08T15:27:55.221Z,25
2017-01-08T15:29:03.878Z,25
2017-01-08T15:30:12.545Z,20
2017-01-08T15:31:21.212Z,20
2017-01-08T15:32:29.876Z,20
2017-01-08T15:33:38.685Z,20
2017-01-08T15:34:47.346Z,15
2017-01-08T15:35:56.012Z,15
2017-01-08T15:37:04.671Z,15
2017-01-08T15:38:13.324Z,15
2017-01-08T15:39:21.983Z,10
2017-01-08T15:40:30.643Z,10
2017-01-08T15:41:39.299Z,10
2017-01-08T15:42:47.954Z,10
2017-01-08T15:43:56.616Z,5
2017-01-08T15:45:05.283Z,5
2017-01-08T15:46:13.946Z,5
2017-01-08T15:47:22.602Z,5
2017-01-08T15:48:31.268Z,5
2017-01-08T15:49:39.936Z,5
2017-01-08T15:50:48.609Z,0
2017-01-08T15:51:57.269Z,0
2017-01-08T15:53:05.947Z,0
2017-01-08T15:54:14.610Z,0
2017-01-08T15:55:23.270Z,0
2017-01-08T15:56:31.939Z,0
2017-01-08T15:57:40.597Z,0
2017-01-08T15:58:49.262Z,0
2017-01-08T15:59:57.922Z,0
2017-01-08T16:01:06.591Z,0
2017-01-08T16:02:15.247Z,0
2017-01-08T16:03:23.908Z,0
2017-01-08T16:04:32.568Z,0
2017-01-08T16:05:41.231Z,0
2017-01-08T16:06:49.899Z,0
2017-01-08T16:07:58.571Z,0
2017-01-08T16:09:07.232Z,0
2017-01-08T16:10:16.125Z,0
2017-01-08T16:11:24.789Z,0
2017-01-08T16:12:33.454Z,0
2017-01-08T16:13:42.112Z,0
2017-01-08T16:14:50.771Z,0
2017-01-08T16:15:59.539Z,0
2017-01-08T16:17:08.204Z,0
2017-01-08T16:18:16.866Z,0
2017-01-08T16:19:25.924Z,0
2017-01-08T16:21:06.674Z,0
2017-01-08T16:22:15.333Z,0
2017-01-08T16:23:23.987Z,0
2017-01-08T16:24:32.689Z,0
2017-01-08T16:25:41.490Z,0